Time;durP1;ratioP1;P1;durP2;ratioP2;P2;SDS_P1;SDS_P2;PMS_P1;PMS_P2;Temp;Humidity;BMP_temperature;BMP_pressure;BME280_temperature;BME280_humidity;BME280_pressure;Samples;Min_cycle;Max_cycle;Signal;HPM_P1;HPM_P2
2022/12/28 00:04:31;;;;;;;11.47;5.17;;;4.70;99.90;;;;;;10473767;28;20230;-69
2022/12/28 00:09:32;;;;;;;10.57;4.93;;;4.60;99.90;;;;;;10473560;28;20302;-69
2022/12/28 00:14:32;;;;;;;9.30;4.47;;;4.60;99.90;;;;;;10465929;28;20595;-68
2022/12/28 00:19:33;;;;;;;7.87;4.90;;;4.70;99.90;;;;;;10478230;28;20207;-68
2022/12/28 00:24:33;;;;;;;9.53;5.33;;;4.90;99.90;;;;;;10473885;28;20716;-69
2022/12/28 00:29:34;;;;;;;9.27;5.03;;;5.00;99.90;;;;;;10475913;28;20234;-69
2022/12/28 00:34:34;;;;;;;9.63;6.03;;;5.10;99.90;;;;;;10480322;28;20250;-69
2022/12/28 00:39:35;;;;;;;14.23;6.40;;;5.10;99.90;;;;;;10470534;28;20210;-68
2022/12/28 00:44:36;;;;;;;8.20;5.37;;;5.10;99.90;;;;;;10455573;28;20227;-68
2022/12/28 00:49:36;;;;;;;10.30;6.43;;;5.00;99.90;;;;;;10472213;28;20223;-68
2022/12/28 00:54:37;;;;;;;12.47;6.63;;;5.00;99.90;;;;;;10464349;28;20224;-69
2022/12/28 00:59:37;;;;;;;13.50;6.30;;;5.00;99.90;;;;;;10454275;28;20638;-68
2022/12/28 01:04:38;;;;;;;12.23;6.37;;;5.00;99.90;;;;;;10461683;28;20583;-69
2022/12/28 01:09:38;;;;;;;12.80;6.70;;;5.00;99.90;;;;;;10446535;28;20212;-68
2022/12/28 01:14:39;;;;;;;11.07;7.07;;;4.90;99.90;;;;;;10480418;28;20218;-68
2022/12/28 01:19:39;;;;;;;11.57;6.93;;;5.00;99.90;;;;;;10470334;28;20239;-69
2022/12/28 01:24:40;;;;;;;10.30;6.73;;;5.00;99.90;;;;;;10472414;28;20297;-69
2022/12/28 01:29:41;;;;;;;9.37;5.70;;;5.00;99.90;;;;;;10480264;28;20216;-70
2022/12/28 01:34:41;;;;;;;10.13;6.00;;;5.00;99.90;;;;;;10462099;28;20273;-70
2022/12/28 01:39:42;;;;;;;10.37;5.30;;;5.00;99.90;;;;;;10472102;28;21085;-68
2022/12/28 01:44:48;;;;;;;9.87;5.80;;;5.10;99.90;;;;;;10456173;28;20218;-69
2022/12/28 01:50:12;;;;;;;10.30;5.17;;;5.20;99.90;;;;;;10479566;28;20228;-72
2022/12/28 01:55:19;;;;;;;7.07;4.53;;;5.30;99.90;;;;;;10475752;28;20219;-69
2022/12/28 02:00:20;;;;;;;8.63;4.37;;;5.40;99.90;;;;;;10478946;28;20271;-68
2022/12/28 02:05:24;;;;;;;9.67;4.30;;;5.50;99.90;;;;;;10454648;28;20618;-68
2022/12/28 02:10:26;;;;;;;7.30;3.63;;;5.60;99.90;;;;;;10477067;28;20235;-68
2022/12/28 02:15:27;;;;;;;10.13;4.00;;;5.70;99.90;;;;;;10471534;28;20694;-69
2022/12/28 02:20:41;;;;;;;5.23;3.07;;;5.80;99.90;;;;;;10484417;28;20341;-69
2022/12/28 02:26:16;;;;;;;6.87;2.97;;;5.90;99.90;;;;;;10472911;28;20604;-68
2022/12/28 02:31:35;;;;;;;7.57;3.70;;;6.00;99.90;;;;;;10474595;28;20219;-69
2022/12/28 02:36:41;;;;;;;6.33;3.53;;;6.00;99.90;;;;;;10496285;28;20235;-70
2022/12/28 02:41:44;;;;;;;6.53;3.07;;;6.00;99.90;;;;;;10479081;28;20310;-69
2022/12/28 02:52:21;;;;;;;7.87;4.20;;;6.10;99.90;;;;;;10472332;28;20686;-70
2022/12/28 02:57:50;;;;;;;6.20;4.03;;;6.00;99.90;;;;;;10461593;28;20307;-70
2022/12/28 03:02:50;;;;;;;7.30;4.60;;;6.00;99.90;;;;;;10470210;28;20220;-69
2022/12/28 03:08:19;;;;;;;7.53;4.93;;;6.00;99.90;;;;;;10474514;28;20223;-70
2022/12/28 03:13:55;;;;;;;7.83;4.80;;;6.00;99.90;;;;;;10480493;28;20713;-70
2022/12/28 03:35:19;;;;;;;8.60;5.20;;;5.80;99.90;;;;;;10470116;28;20212;-69
2022/12/28 03:40:29;;;;;;;10.27;5.77;;;5.80;99.90;;;;;;10454023;28;20258;-69
2022/12/28 03:45:39;;;;;;;12.27;5.90;;;5.70;99.90;;;;;;10467411;28;20733;-69
2022/12/28 03:50:43;;;;;;;8.77;5.53;;;5.70;99.90;;;;;;10473920;28;20783;-70
2022/12/28 03:55:43;;;;;;;8.47;5.37;;;5.70;99.90;;;;;;10448962;28;20231;-69
2022/12/28 04:00:44;;;;;;;6.83;4.87;;;5.70;99.90;;;;;;10474186;28;20227;-69
2022/12/28 04:05:44;;;;;;;8.93;4.70;;;5.80;99.90;;;;;;10455040;28;20239;-70
2022/12/28 04:10:45;;;;;;;6.23;4.13;;;5.80;99.90;;;;;;10466890;28;20232;-69
2022/12/28 04:15:58;;;;;;;6.90;3.90;;;5.90;99.90;;;;;;10472666;28;20671;-70
2022/12/28 04:20:59;;;;;;;6.60;3.87;;;5.90;99.90;;;;;;10462101;28;20231;-69
2022/12/28 04:26:06;;;;;;;7.30;3.83;;;6.00;99.90;;;;;;10474192;28;20770;-69
2022/12/28 04:31:10;;;;;;;4.77;3.60;;;6.00;99.90;;;;;;10465788;28;20247;-69
2022/12/28 04:36:13;;;;;;;6.93;3.53;;;6.10;99.90;;;;;;10462027;28;20234;-70
2022/12/28 04:41:13;;;;;;;6.40;3.60;;;6.20;99.90;;;;;;10450350;28;20222;-69
2022/12/28 04:46:15;;;;;;;5.30;3.30;;;6.20;99.90;;;;;;10458177;28;20227;-69
2022/12/28 04:51:22;;;;;;;7.13;3.63;;;6.30;99.90;;;;;;10470527;28;20241;-69
2022/12/28 04:56:24;;;;;;;3.80;2.73;;;6.40;99.90;;;;;;10486636;28;20227;-69
2022/12/28 05:01:25;;;;;;;4.50;3.10;;;6.40;99.90;;;;;;10462148;28;20306;-69
2022/12/28 05:06:27;;;;;;;6.03;3.07;;;6.50;99.90;;;;;;10480317;28;20226;-70
2022/12/28 05:11:29;;;;;;;3.90;3.10;;;6.40;99.90;;;;;;10480829;28;20226;-69
2022/12/28 05:16:30;;;;;;;3.87;3.27;;;6.50;99.90;;;;;;10462950;28;20310;-69
2022/12/28 05:21:30;;;;;;;3.80;3.17;;;6.50;99.90;;;;;;10455135;28;20226;-69
2022/12/28 05:26:31;;;;;;;5.17;3.13;;;6.50;99.90;;;;;;10479306;28;20238;-71
2022/12/28 05:31:32;;;;;;;6.23;2.93;;;6.60;99.90;;;;;;10472337;28;20284;-69
2022/12/28 05:36:35;;;;;;;5.70;3.13;;;6.60;99.90;;;;;;10479122;28;20223;-70
2022/12/28 05:41:36;;;;;;;6.00;3.80;;;6.60;99.90;;;;;;10471649;28;20227;-70
2022/12/28 05:46:36;;;;;;;17.47;7.37;;;6.50;99.90;;;;;;10485800;28;20230;-70
2022/12/28 05:51:37;;;;;;;9.93;5.50;;;6.50;99.90;;;;;;10469243;28;20227;-70
2022/12/28 05:56:37;;;;;;;12.77;5.97;;;6.40;99.90;;;;;;10450592;28;20220;-70
2022/12/28 06:01:40;;;;;;;12.63;5.23;;;6.50;99.90;;;;;;10450618;28;20322;-68
2022/12/28 06:06:40;;;;;;;6.60;4.57;;;6.50;99.90;;;;;;10475758;28;20235;-68
2022/12/28 06:11:41;;;;;;;9.13;4.37;;;6.40;99.90;;;;;;10472805;28;20223;-68
2022/12/28 06:16:42;;;;;;;6.83;3.57;;;6.40;99.90;;;;;;10475497;28;20247;-70
2022/12/28 06:21:43;;;;;;;3.87;2.97;;;6.40;99.90;;;;;;10471759;28;20311;-69
2022/12/28 06:26:44;;;;;;;4.30;3.00;;;6.40;99.90;;;;;;10475417;28;20234;-70
2022/12/28 06:31:46;;;;;;;4.07;2.80;;;6.40;99.90;;;;;;10455922;28;20683;-70
2022/12/28 06:36:49;;;;;;;4.17;2.93;;;6.40;99.90;;;;;;10462360;28;20211;-69
2022/12/28 06:41:50;;;;;;;7.33;3.10;;;6.40;99.90;;;;;;10467728;28;20679;-70
2022/12/28 06:46:50;;;;;;;5.90;3.07;;;6.40;99.90;;;;;;10475578;28;20231;-69
2022/12/28 06:51:54;;;;;;;2.87;2.30;;;6.30;99.90;;;;;;10363583;28;3617828;-69
2022/12/28 06:56:54;;;;;;;3.83;2.73;;;6.30;99.90;;;;;;10477386;28;20243;-69
2022/12/28 07:01:55;;;;;;;3.93;2.70;;;6.20;99.90;;;;;;10462101;28;20707;-69
2022/12/28 07:06:56;;;;;;;6.23;2.80;;;6.20;99.90;;;;;;10473258;28;20234;-69
2022/12/28 07:11:56;;;;;;;4.37;2.80;;;6.20;99.90;;;;;;10469888;28;20698;-69
2022/12/28 07:16:57;;;;;;;4.30;2.80;;;6.30;99.90;;;;;;10454228;28;20227;-69
2022/12/28 07:21:57;;;;;;;3.20;2.70;;;6.30;99.90;;;;;;10466979;28;20302;-69
2022/12/28 07:26:58;;;;;;;4.83;2.50;;;6.40;99.90;;;;;;10469081;28;20346;-69
2022/12/28 07:31:58;;;;;;;3.60;2.60;;;6.40;99.90;;;;;;10471148;28;20930;-68
2022/12/28 07:36:59;;;;;;;3.57;2.37;;;6.40;99.90;;;;;;10469365;28;20229;-68
2022/12/28 07:42:00;;;;;;;5.93;2.37;;;6.50;99.90;;;;;;10473300;28;20268;-69
2022/12/28 07:47:00;;;;;;;3.57;1.93;;;6.50;99.90;;;;;;10471988;28;20277;-69
2022/12/28 07:52:04;;;;;;;4.00;2.30;;;6.50;99.90;;;;;;10470675;28;20234;-69
2022/12/28 07:57:05;;;;;;;3.20;2.10;;;6.50;99.90;;;;;;10469679;28;20235;-68
2022/12/28 08:02:07;;;;;;;5.20;2.47;;;6.60;99.90;;;;;;10470267;28;20224;-69
2022/12/28 08:07:07;;;;;;;2.50;1.80;;;6.70;99.90;;;;;;10469522;28;20231;-69
2022/12/28 08:12:08;;;;;;;3.77;1.93;;;6.80;99.90;;;;;;10468002;28;20707;-68
2022/12/28 08:17:09;;;;;;;3.40;2.13;;;6.90;99.90;;;;;;10469547;28;20233;-69
2022/12/28 08:22:09;;;;;;;3.53;1.80;;;7.00;99.90;;;;;;10469126;28;20248;-68
2022/12/28 08:27:10;;;;;;;3.17;1.80;;;7.00;99.90;;;;;;10469620;28;20234;-69
2022/12/28 08:32:11;;;;;;;8.40;3.60;;;7.10;99.90;;;;;;10468757;28;20219;-68
2022/12/28 08:37:11;;;;;;;5.40;1.90;;;7.10;99.90;;;;;;10488909;28;20713;-68
2022/12/28 08:42:12;;;;;;;3.37;1.73;;;7.20;99.90;;;;;;10486375;28;20302;-69
2022/12/28 08:47:12;;;;;;;3.30;1.93;;;7.20;99.90;;;;;;10454829;28;20754;-69
2022/12/28 08:52:13;;;;;;;4.97;1.73;;;7.30;99.90;;;;;;10467920;28;20239;-70
2022/12/28 08:57:13;;;;;;;4.70;2.10;;;7.40;99.90;;;;;;10468479;28;20226;-68
2022/12/28 09:02:14;;;;;;;2.40;1.47;;;7.40;99.90;;;;;;10475746;28;20227;-70
2022/12/28 09:07:14;;;;;;;2.60;1.70;;;7.50;99.90;;;;;;10472925;28;20231;-70
2022/12/28 09:12:16;;;;;;;3.03;1.60;;;7.70;99.90;;;;;;10479557;28;20267;-68
2022/12/28 09:17:17;;;;;;;5.07;1.90;;;8.10;99.90;;;;;;10467706;28;20213;-70
2022/12/28 09:22:17;;;;;;;2.63;1.40;;;8.60;99.90;;;;;;10469651;28;20308;-70
2022/12/28 09:27:18;;;;;;;3.67;1.50;;;9.50;99.90;;;;;;10466846;28;20231;-69
2022/12/28 09:32:19;;;;;;;3.00;1.60;;;9.80;99.90;;;;;;10469342;28;20312;-68
2022/12/28 09:37:19;;;;;;;4.10;1.70;;;9.30;99.90;;;;;;10449170;28;20305;-68
2022/12/28 09:42:25;;;;;;;3.10;1.50;;;8.90;99.90;;;;;;10484447;28;20225;-69
2022/12/28 09:47:38;;;;;;;4.37;1.73;;;9.50;99.90;;;;;;10472706;28;20320;-69
2022/12/28 09:52:47;;;;;;;3.17;1.70;;;12.70;99.90;;;;;;10470885;28;20316;-71
2022/12/28 09:57:52;;;;;;;3.03;1.43;;;15.70;99.90;;;;;;10459753;28;20215;-68
2022/12/28 10:03:02;;;;;;;3.50;1.27;;;18.10;99.90;;;;;;10472721;28;20229;-70
2022/12/28 10:08:03;;;;;;;3.53;1.93;;;19.50;93.90;;;;;;10470557;28;20252;-69
2022/12/28 10:13:16;;;;;;;3.70;1.40;;;20.20;86.50;;;;;;10474565;28;20700;-69
2022/12/28 10:18:25;;;;;;;2.43;1.10;;;20.10;79.90;;;;;;10473933;28;20658;-68
2022/12/28 10:23:29;;;;;;;2.87;1.30;;;18.40;83.50;;;;;;10477593;28;20593;-70
2022/12/28 10:28:45;;;;;;;2.17;1.23;;;16.50;90.10;;;;;;10478280;28;20285;-69
2022/12/28 10:33:56;;;;;;;3.93;1.63;;;14.60;94.90;;;;;;10477063;28;20222;-70
2022/12/28 10:38:57;;;;;;;3.80;1.30;;;13.60;98.70;;;;;;10471465;28;20219;-70
2022/12/28 10:43:58;;;;;;;3.17;1.47;;;13.70;99.50;;;;;;10483055;28;20245;-69
2022/12/28 10:49:02;;;;;;;2.93;1.37;;;12.60;99.90;;;;;;10475054;28;20227;-69
2022/12/28 10:54:21;;;;;;;2.50;1.27;;;12.20;99.90;;;;;;10484334;28;20226;-69
2022/12/28 10:59:27;;;;;;;4.03;1.67;;;11.90;99.90;;;;;;10476735;28;20225;-69
2022/12/28 11:04:27;;;;;;;3.33;1.53;;;11.50;99.90;;;;;;10469632;28;20230;-69
2022/12/28 11:09:37;;;;;;;2.60;1.33;;;11.10;99.90;;;;;;10466481;28;20270;-68
2022/12/28 11:14:38;;;;;;;3.60;1.70;;;10.90;99.90;;;;;;10483186;28;20298;-70
2022/12/28 11:19:38;;;;;;;2.47;1.50;;;10.70;99.90;;;;;;10474916;28;20226;-69
2022/12/28 11:24:39;;;;;;;2.73;1.30;;;10.50;99.90;;;;;;10466876;28;20219;-69
2022/12/28 11:29:43;;;;;;;2.37;1.50;;;10.50;99.90;;;;;;10456471;28;20221;-69
2022/12/28 11:34:44;;;;;;;2.23;1.40;;;10.60;99.90;;;;;;10470591;28;20217;-68
2022/12/28 11:39:47;;;;;;;1.93;1.20;;;10.90;99.90;;;;;;10474713;28;20235;-69
2022/12/28 11:44:49;;;;;;;3.80;1.40;;;11.20;99.90;;;;;;10472393;28;20236;-69
2022/12/28 11:49:50;;;;;;;4.47;1.40;;;11.30;99.90;;;;;;10450064;28;20641;-69
2022/12/28 11:55:20;;;;;;;1.57;1.33;;;11.50;99.90;;;;;;10455259;28;20221;-69
2022/12/28 12:00:22;;;;;;;3.03;1.53;;;11.60;99.90;;;;;;10470873;28;20724;-70
2022/12/28 12:05:35;;;;;;;6.50;1.50;;;11.60;99.90;;;;;;10467555;28;20186;-68
2022/12/28 12:10:37;;;;;;;5.27;1.30;;;11.60;99.90;;;;;;10455376;28;20226;-69
2022/12/28 12:15:41;;;;;;;2.40;1.40;;;11.50;99.90;;;;;;10477162;28;20706;-69
2022/12/28 12:21:01;;;;;;;2.03;1.40;;;11.40;99.90;;;;;;10464619;28;20259;-69
2022/12/28 12:26:29;;;;;;;2.40;1.07;;;11.60;99.90;;;;;;10470251;28;20238;-69
2022/12/28 12:31:41;;;;;;;5.50;1.63;;;11.60;99.90;;;;;;10472191;28;20223;-69
2022/12/28 12:37:13;;;;;;;3.67;1.77;;;11.50;99.90;;;;;;10465196;28;20236;-69
2022/12/28 12:42:39;;;;;;;5.60;1.50;;;11.40;99.90;;;;;;10469694;28;20655;-69
2022/12/28 12:47:55;;;;;;;3.23;1.63;;;11.20;99.90;;;;;;10473114;28;20221;-69
2022/12/28 12:53:14;;;;;;;3.57;1.93;;;10.90;99.90;;;;;;10479725;28;20222;-70
2022/12/28 12:58:26;;;;;;;2.53;1.50;;;10.60;99.90;;;;;;10472701;28;20230;-69
2022/12/28 13:03:30;;;;;;;1.50;1.27;;;10.40;99.90;;;;;;10479900;28;20280;-69
2022/12/28 13:08:41;;;;;;;2.43;1.53;;;10.30;99.90;;;;;;10471666;28;20229;-70
2022/12/28 13:13:46;;;;;;;3.13;1.53;;;10.20;99.90;;;;;;10476655;28;20218;-70
2022/12/28 13:18:54;;;;;;;1.93;1.33;;;10.20;99.90;;;;;;10461594;28;20665;-70
2022/12/28 13:23:54;;;;;;;2.93;1.97;;;10.20;99.90;;;;;;10473908;28;20229;-69
2022/12/28 13:29:02;;;;;;;4.13;1.70;;;10.30;99.90;;;;;;10459926;28;20576;-68
2022/12/28 13:34:23;;;;;;;3.83;1.80;;;10.40;99.90;;;;;;10457004;28;20319;-68
2022/12/28 13:39:33;;;;;;;4.43;1.70;;;10.40;99.90;;;;;;10473886;28;20579;-68
2022/12/28 13:44:48;;;;;;;3.30;1.60;;;10.40;99.90;;;;;;10486623;28;20222;-71
2022/12/28 13:50:06;;;;;;;2.57;1.70;;;10.40;99.90;;;;;;10470795;28;20610;-68
2022/12/28 13:55:21;;;;;;;3.43;1.57;;;10.20;99.90;;;;;;10475050;28;20237;-69
2022/12/28 14:00:22;;;;;;;2.37;1.63;;;10.10;99.90;;;;;;10476718;28;20171;-68
2022/12/28 14:05:26;;;;;;;3.43;1.60;;;9.90;99.90;;;;;;10473691;28;20189;-70
2022/12/28 14:10:27;;;;;;;2.33;1.47;;;9.80;99.90;;;;;;10485914;28;20222;-69
2022/12/28 14:15:28;;;;;;;4.57;1.87;;;9.70;99.90;;;;;;10472763;28;20236;-68
2022/12/28 14:20:43;;;;;;;2.63;1.53;;;9.60;99.90;;;;;;10483197;28;20252;-70
2022/12/28 14:25:44;;;;;;;4.90;1.70;;;9.60;99.90;;;;;;10453793;28;20868;-69
2022/12/28 14:30:53;;;;;;;5.63;1.77;;;9.60;99.90;;;;;;10470025;28;20222;-70
2022/12/28 14:35:58;;;;;;;2.80;1.60;;;9.60;99.90;;;;;;10476446;28;20243;-70
2022/12/28 14:41:00;;;;;;;3.90;1.50;;;9.60;99.90;;;;;;10459816;28;20221;-68
2022/12/28 14:46:34;;;;;;;3.57;1.80;;;9.60;99.90;;;;;;10475369;28;20561;-70
2022/12/28 14:51:35;;;;;;;3.20;1.60;;;9.60;99.90;;;;;;10452580;28;20662;-69
2022/12/28 14:56:36;;;;;;;3.07;1.43;;;9.60;99.90;;;;;;10469715;28;20242;-69
2022/12/28 15:01:42;;;;;;;2.67;1.43;;;9.60;99.90;;;;;;10476509;28;20241;-69
2022/12/28 15:06:42;;;;;;;2.27;1.70;;;9.60;99.90;;;;;;10484424;28;20213;-69
2022/12/28 15:11:46;;;;;;;2.53;1.40;;;9.60;99.90;;;;;;10486152;28;20213;-70
2022/12/28 15:16:46;;;;;;;5.17;1.40;;;9.50;99.90;;;;;;10450607;28;20315;-68
2022/12/28 15:21:47;;;;;;;2.37;1.37;;;9.50;99.90;;;;;;10474688;28;20305;-68
2022/12/28 15:26:47;;;;;;;1.80;1.20;;;9.50;99.90;;;;;;10467359;28;20253;-68
2022/12/28 15:31:48;;;;;;;1.97;1.33;;;9.40;99.90;;;;;;10468343;28;20232;-69
2022/12/28 15:36:49;;;;;;;1.20;0.87;;;9.40;99.90;;;;;;10473552;28;20313;-70
2022/12/28 15:41:50;;;;;;;2.00;1.40;;;9.40;99.90;;;;;;10475261;28;20257;-68
2022/12/28 15:46:51;;;;;;;3.37;1.60;;;9.50;99.90;;;;;;10468429;28;20654;-70
2022/12/28 15:51:51;;;;;;;3.27;1.50;;;9.40;99.90;;;;;;10472894;28;20222;-69
2022/12/28 15:56:53;;;;;;;3.93;1.50;;;9.40;99.90;;;;;;10468375;28;20860;-69
2022/12/28 16:01:55;;;;;;;2.83;1.40;;;9.40;99.90;;;;;;10454253;28;20227;-69
2022/12/28 16:06:56;;;;;;;2.80;1.30;;;9.40;99.90;;;;;;10468007;28;20692;-69
2022/12/28 16:11:56;;;;;;;2.03;1.20;;;9.30;99.90;;;;;;10471537;28;20323;-69
2022/12/28 16:16:57;;;;;;;1.83;1.50;;;9.30;99.90;;;;;;10467542;28;20916;-69
2022/12/28 16:21:57;;;;;;;5.70;1.20;;;9.20;99.90;;;;;;10473175;28;20222;-69
2022/12/28 16:26:58;;;;;;;2.00;1.37;;;9.20;99.90;;;;;;10476136;28;20233;-69
2022/12/28 16:32:00;;;;;;;2.20;1.40;;;9.20;99.90;;;;;;10470585;28;21247;-70
2022/12/28 16:37:00;;;;;;;5.47;1.70;;;9.30;99.90;;;;;;10450359;28;20253;-69
2022/12/28 16:42:03;;;;;;;3.17;1.70;;;9.30;99.90;;;;;;10454711;28;20639;-68
2022/12/28 16:47:04;;;;;;;1.97;1.60;;;9.30;99.90;;;;;;10471578;28;20238;-69
2022/12/28 16:52:05;;;;;;;2.77;1.30;;;9.30;99.90;;;;;;10458646;28;20732;-69
2022/12/28 16:57:05;;;;;;;2.30;1.50;;;9.30;99.90;;;;;;10460052;28;20229;-70
2022/12/28 17:02:09;;;;;;;2.93;1.27;;;9.30;99.90;;;;;;10473759;28;20590;-69
2022/12/28 17:07:10;;;;;;;4.00;1.70;;;9.40;99.90;;;;;;10481934;28;20249;-69
2022/12/28 17:12:11;;;;;;;2.03;1.50;;;9.50;99.90;;;;;;10466220;28;20210;-69
2022/12/28 17:17:11;;;;;;;4.13;1.30;;;9.50;99.90;;;;;;10482656;28;20240;-69
2022/12/28 17:22:12;;;;;;;2.67;1.80;;;9.50;99.90;;;;;;10476049;28;20222;-69
2022/12/28 17:27:13;;;;;;;3.20;1.60;;;9.50;99.90;;;;;;10459157;28;20226;-69
2022/12/28 17:32:14;;;;;;;4.10;1.70;;;9.50;99.90;;;;;;10475509;28;20246;-68
2022/12/28 17:37:14;;;;;;;3.47;1.80;;;9.40;99.90;;;;;;10466757;28;20237;-69
2022/12/28 17:42:15;;;;;;;2.00;1.50;;;9.40;99.90;;;;;;10479801;28;20232;-70
2022/12/28 17:47:15;;;;;;;4.20;2.17;;;9.40;99.90;;;;;;10474806;28;20781;-70
2022/12/28 17:52:21;;;;;;;3.50;1.83;;;9.50;99.90;;;;;;10476159;28;20227;-69
2022/12/28 17:57:21;;;;;;;2.93;2.20;;;9.40;99.90;;;;;;10473265;28;20231;-70
2022/12/28 18:02:22;;;;;;;3.10;2.00;;;9.40;99.90;;;;;;10475771;28;20217;-70
2022/12/28 18:07:23;;;;;;;3.57;2.20;;;9.40;99.90;;;;;;10472820;28;20223;-70
2022/12/28 18:12:23;;;;;;;3.20;1.90;;;9.40;99.90;;;;;;10465128;28;20672;-68
2022/12/28 18:17:24;;;;;;;2.87;1.60;;;9.40;99.90;;;;;;10472212;28;20695;-68
2022/12/28 18:22:24;;;;;;;3.90;2.13;;;9.30;99.90;;;;;;10457550;28;20219;-69
2022/12/28 18:27:25;;;;;;;4.90;2.03;;;9.20;99.90;;;;;;10461768;28;20222;-68
2022/12/28 18:32:25;;;;;;;3.27;2.20;;;9.20;99.90;;;;;;10477627;28;20308;-71
2022/12/28 18:37:26;;;;;;;4.57;2.10;;;9.20;99.90;;;;;;10477838;28;20264;-70
2022/12/28 18:42:27;;;;;;;3.27;2.00;;;9.10;99.90;;;;;;10476724;28;20600;-68
2022/12/28 18:47:31;;;;;;;2.30;2.10;;;9.20;99.90;;;;;;10470457;28;20634;-69
2022/12/28 18:52:34;;;;;;;3.97;2.60;;;9.20;99.90;;;;;;10476232;28;20265;-68
2022/12/28 18:57:35;;;;;;;4.40;2.40;;;9.20;99.90;;;;;;10479869;28;20229;-70
2022/12/28 19:02:36;;;;;;;4.23;1.97;;;9.10;99.90;;;;;;10485023;28;20213;-69
2022/12/28 19:07:37;;;;;;;4.33;2.57;;;9.10;99.90;;;;;;10463037;28;20573;-69
2022/12/28 19:12:38;;;;;;;4.97;2.20;;;9.10;99.90;;;;;;10479706;28;20220;-70
2022/12/28 19:17:39;;;;;;;3.73;2.20;;;9.10;99.90;;;;;;10476053;28;20232;-69
2022/12/28 19:22:39;;;;;;;4.57;2.10;;;9.10;99.90;;;;;;10449694;28;20233;-70
2022/12/28 19:27:40;;;;;;;2.20;1.70;;;9.20;99.90;;;;;;10467184;28;20219;-68
2022/12/28 19:32:41;;;;;;;3.63;2.00;;;9.20;99.90;;;;;;10449078;28;20242;-68
2022/12/28 19:37:42;;;;;;;3.27;1.83;;;9.30;99.90;;;;;;10476034;28;20230;-69
2022/12/28 19:42:43;;;;;;;3.30;1.90;;;9.30;99.90;;;;;;10456779;28;20219;-69
2022/12/28 19:47:43;;;;;;;3.27;1.93;;;9.30;99.90;;;;;;10474513;28;20208;-68
2022/12/28 19:52:44;;;;;;;3.13;2.07;;;9.30;99.90;;;;;;10467105;28;20230;-69
2022/12/28 19:57:45;;;;;;;2.83;2.33;;;9.30;99.90;;;;;;10482101;28;20238;-69
2022/12/28 20:02:45;;;;;;;3.50;2.20;;;9.40;99.90;;;;;;10466739;28;20227;-69
2022/12/28 20:07:46;;;;;;;5.33;2.80;;;9.50;99.90;;;;;;10455623;28;20219;-69
2022/12/28 20:12:46;;;;;;;3.20;1.77;;;9.50;99.90;;;;;;10451473;28;20236;-69
2022/12/28 20:17:47;;;;;;;3.60;1.80;;;9.60;99.90;;;;;;10472929;28;20268;-69
2022/12/28 20:22:47;;;;;;;4.47;2.10;;;9.60;99.90;;;;;;10465766;28;20231;-76
2022/12/28 20:27:48;;;;;;;3.63;1.97;;;9.70;99.90;;;;;;10474003;28;20212;-76
2022/12/28 20:32:48;;;;;;;3.13;1.70;;;9.70;99.90;;;;;;10472336;28;20279;-76
2022/12/28 20:37:49;;;;;;;3.17;1.67;;;9.80;99.90;;;;;;10474713;28;20233;-76
2022/12/28 20:48:09;;;;;;;3.13;2.10;;;10.00;99.90;;;;;;10469311;28;20257;-76
2022/12/28 20:53:09;;;;;;;2.30;1.67;;;10.00;99.90;;;;;;10456937;28;20245;-76
2022/12/28 20:58:10;;;;;;;2.63;1.60;;;10.10;99.90;;;;;;10476472;28;20683;-76
2022/12/28 21:03:11;;;;;;;2.33;1.50;;;10.10;99.90;;;;;;10473578;28;20693;-76
2022/12/28 21:08:11;;;;;;;2.23;1.90;;;10.10;99.90;;;;;;10477048;28;20266;-76
2022/12/28 21:13:12;;;;;;;2.13;1.93;;;10.00;99.90;;;;;;10481531;28;20709;-76
2022/12/28 21:18:12;;;;;;;2.33;1.53;;;10.00;99.90;;;;;;10450130;28;20253;-74
2022/12/28 21:23:14;;;;;;;2.77;1.43;;;10.10;99.90;;;;;;10450702;28;20311;-76
2022/12/28 21:28:14;;;;;;;2.23;1.70;;;10.00;99.90;;;;;;10450519;28;20231;-76
2022/12/28 21:33:15;;;;;;;2.10;1.70;;;10.00;99.90;;;;;;10469262;28;20301;-76
2022/12/28 21:38:15;;;;;;;3.20;1.90;;;10.00;99.90;;;;;;10475178;28;20671;-76
2022/12/28 21:43:16;;;;;;;2.77;2.10;;;9.90;99.90;;;;;;10464751;28;20248;-76
2022/12/28 21:48:16;;;;;;;3.33;1.70;;;9.90;99.90;;;;;;10477304;28;20654;-76
2022/12/28 21:53:20;;;;;;;2.17;1.90;;;10.00;99.90;;;;;;10475011;28;20234;-79
2022/12/28 21:58:21;;;;;;;2.63;2.00;;;10.00;99.90;;;;;;10477503;28;20221;-76
2022/12/28 22:14:00;;;;;;;2.10;1.77;;;10.00;99.90;;;;;;10473658;28;20722;-77
2022/12/28 22:19:01;;;;;;;2.77;1.87;;;10.10;99.90;;;;;;10476368;28;20226;-77
2022/12/28 22:24:02;;;;;;;2.37;1.87;;;10.10;99.90;;;;;;10473433;28;20715;-76
2022/12/28 22:29:02;;;;;;;4.93;2.00;;;10.10;99.90;;;;;;10475287;28;20317;-74
2022/12/28 22:34:03;;;;;;;2.50;1.70;;;10.20;99.90;;;;;;10488340;28;20530;-77
2022/12/28 22:39:03;;;;;;;5.57;2.30;;;10.20;99.90;;;;;;10473183;28;20252;-75
2022/12/28 22:44:04;;;;;;;5.03;2.23;;;10.10;99.90;;;;;;10483139;28;20266;-77
2022/12/28 22:49:05;;;;;;;4.10;2.23;;;10.20;99.90;;;;;;10482804;28;20729;-76
2022/12/28 22:54:06;;;;;;;3.03;1.90;;;10.20;99.90;;;;;;10482422;28;20231;-77
2022/12/28 22:59:06;;;;;;;3.73;1.90;;;10.20;99.90;;;;;;10479764;28;20305;-75
2022/12/28 23:04:07;;;;;;;3.00;2.00;;;10.20;99.90;;;;;;10472477;28;20225;-76
2022/12/28 23:09:07;;;;;;;3.53;2.07;;;10.20;99.90;;;;;;10455141;28;20219;-76
2022/12/28 23:30:16;;;;;;;3.03;1.80;;;10.30;99.90;;;;;;10478189;28;20286;-76
2022/12/28 23:35:17;;;;;;;3.80;2.23;;;10.30;99.90;;;;;;10476288;28;20225;-75
2022/12/28 23:40:20;;;;;;;3.80;2.27;;;10.20;99.90;;;;;;10471425;28;20183;-77
2022/12/28 23:45:21;;;;;;;4.23;2.30;;;10.30;99.90;;;;;;10473805;28;20186;-75
2022/12/28 23:50:22;;;;;;;3.13;2.03;;;10.30;99.90;;;;;;10470346;28;20293;-76
2022/12/28 23:55:22;;;;;;;3.00;2.37;;;10.30;99.90;;;;;;10473183;28;20225;-76
